Time;durP1;ratioP1;P1;durP2;ratioP2;P2;SDS_P1;SDS_P2;PMS_P1;PMS_P2;Temp;Humidity;BMP_temperature;BMP_pressure;BME280_temperature;BME280_humidity;BME280_pressure;Samples;Min_cycle;Max_cycle;Signal;HPM_P1;HPM_P2
2022/10/10 00:00:24;;;;;;;4.13;2.40;;;;;;;8.51;100.00;96017.84;1038570;28;20484;-70
2022/10/10 00:00:55;;;;;;;4.75;2.85;;;;;;;8.52;100.00;96011.59;1034235;28;20033;-69
2022/10/10 00:01:27;;;;;;;4.03;2.13;;;;;;;8.48;100.00;96007.88;1030451;28;20056;-70
2022/10/10 00:01:57;;;;;;;6.78;2.28;;;;;;;8.40;100.00;95995.22;1031437;28;20018;-70
2022/10/10 00:02:28;;;;;;;7.45;2.25;;;;;;;8.52;100.00;96014.22;1026734;28;20278;-69
2022/10/10 00:02:58;;;;;;;4.93;2.53;;;;;;;8.52;100.00;96013.41;1026159;28;20022;-70
2022/10/10 00:03:29;;;;;;;4.82;2.55;;;;;;;8.52;100.00;96013.41;1027652;28;20031;-69
2022/10/10 00:03:59;;;;;;;2.88;2.05;;;;;;;8.48;100.00;96007.88;1026281;28;20026;-69
2022/10/10 00:04:30;;;;;;;4.05;2.50;;;;;;;8.54;100.00;96014.75;1026505;28;20031;-69
2022/10/10 00:05:00;;;;;;;5.38;2.42;;;;;;;8.53;100.00;96012.41;1026345;28;20433;-70
2022/10/10 00:05:30;;;;;;;6.90;2.38;;;;;;;8.52;100.00;96022.06;1025758;28;20018;-69
2022/10/10 00:06:01;;;;;;;5.93;2.67;;;;;;;8.53;100.00;96020.25;1026353;28;20030;-69
2022/10/10 00:06:31;;;;;;;5.18;2.35;;;;;;;8.51;100.00;96012.63;1030511;28;20022;-68
2022/10/10 00:07:03;;;;;;;4.10;2.72;;;;;;;8.52;100.00;96019.47;1034118;28;20777;-69
2022/10/10 00:07:33;;;;;;;5.45;2.58;;;;;;;8.54;100.00;96016.59;1030386;28;20022;-69
2022/10/10 00:08:04;;;;;;;5.22;2.50;;;;;;;8.55;100.00;96018.97;1026471;28;20269;-70
2022/10/10 00:08:34;;;;;;;4.57;2.45;;;;;;;8.54;100.00;96012.13;1034259;28;20029;-69
2022/10/10 00:09:05;;;;;;;7.38;2.90;;;;;;;8.55;100.00;96020.78;1034358;28;20030;-68
2022/10/10 00:09:35;;;;;;;6.90;2.40;;;;;;;8.53;100.00;96013.19;1034301;28;20018;-70
2022/10/10 00:10:06;;;;;;;5.68;2.47;;;;;;;8.53;100.00;96012.41;1030333;28;20032;-70
2022/10/10 00:10:37;;;;;;;3.10;2.33;;;;;;;8.53;100.00;96010.56;1026415;28;20019;-69
2022/10/10 00:11:07;;;;;;;3.20;2.17;;;;;;;8.55;100.00;96013.75;1030407;28;20022;-69
2022/10/10 00:11:38;;;;;;;4.03;2.25;;;;;;;8.53;100.00;96015.78;1030373;28;20030;-69
2022/10/10 00:12:08;;;;;;;7.80;3.67;;;;;;;8.54;100.00;96009.53;1025403;28;20038;-68
2022/10/10 00:12:39;;;;;;;7.13;2.70;;;;;;;8.56;100.00;96017.94;1031178;28;20631;-69
2022/10/10 00:13:09;;;;;;;3.65;2.53;;;;;;;8.55;100.00;96005.91;1027478;28;20029;-69
2022/10/10 00:13:40;;;;;;;4.60;2.53;;;;;;;8.52;100.00;96008.19;1028337;28;20019;-70
2022/10/10 00:14:10;;;;;;;2.92;2.35;;;;;;;8.56;100.00;96012.69;1031139;28;20018;-69
2022/10/10 00:14:41;;;;;;;4.93;2.97;;;;;;;8.55;100.00;96012.94;1027451;28;20031;-69
2022/10/10 00:15:11;;;;;;;4.60;2.40;;;;;;;8.54;100.00;96012.13;1031030;28;20022;-68
2022/10/10 00:15:42;;;;;;;3.92;2.65;;;;;;;8.54;100.00;96006.13;1026383;28;20121;-69
2022/10/10 00:16:12;;;;;;;5.18;3.40;;;;;;;8.55;100.00;96013.75;1031054;28;20129;-69
2022/10/10 00:16:43;;;;;;;4.90;2.92;;;;;;;8.52;100.00;96003.75;1031294;28;20019;-70
2022/10/10 00:17:13;;;;;;;5.30;2.50;;;;;;;8.56;100.00;96010.09;1031247;28;20031;-68
2022/10/10 00:17:44;;;;;;;8.82;2.60;;;;;;;8.57;100.00;96006.44;1025089;28;20534;-69
2022/10/10 00:18:14;;;;;;;5.53;2.53;;;;;;;8.56;100.00;96004.84;1023127;29;20031;-69
2022/10/10 00:18:45;;;;;;;6.45;3.08;;;;;;;8.57;100.00;96008.25;1022193;29;20503;-70
2022/10/10 00:19:15;;;;;;;5.45;2.85;;;;;;;8.57;100.00;96011.66;1023266;28;20031;-69
2022/10/10 00:19:46;;;;;;;4.22;2.53;;;;;;;8.58;100.00;96015.84;1031244;28;20029;-69
2022/10/10 00:20:17;;;;;;;5.90;2.60;;;;;;;8.50;100.00;95990.13;1033537;28;20022;-70
2022/10/10 00:20:50;;;;;;;5.40;3.47;;;;;;;8.57;100.00;96006.44;1031096;28;20045;-70
2022/10/10 00:21:20;;;;;;;6.28;2.50;;;;;;;8.58;100.00;96013.22;1031302;28;20277;-70
2022/10/10 00:21:50;;;;;;;4.38;2.63;;;;;;;8.58;100.00;96007.22;1030989;28;20260;-69
2022/10/10 00:22:21;;;;;;;4.03;2.80;;;;;;;8.58;100.00;96004.59;1031491;28;20030;-70
2022/10/10 00:22:51;;;;;;;7.35;2.80;;;;;;;8.59;100.00;95998.34;1035314;28;20018;-69
2022/10/10 00:23:22;;;;;;;3.40;2.20;;;;;;;8.61;100.00;96007.53;1027164;28;20174;-69
2022/10/10 00:23:52;;;;;;;5.63;2.50;;;;;;;8.61;100.00;96007.53;1026877;28;20034;-69
2022/10/10 00:24:23;;;;;;;5.93;2.65;;;;;;;8.57;100.00;96009.03;1019215;29;20632;-70
2022/10/10 00:24:53;;;;;;;6.75;2.60;;;;;;;8.60;100.00;96011.19;1023162;28;20023;-69
2022/10/10 00:25:24;;;;;;;4.55;2.65;;;;;;;8.57;100.00;95998.59;1030660;28;20089;-69
2022/10/10 00:25:54;;;;;;;4.30;2.53;;;;;;;8.61;100.00;96007.53;1022520;29;20501;-71
2022/10/10 00:26:25;;;;;;;6.47;2.67;;;;;;;8.60;100.00;96003.31;1023208;29;20382;-70
2022/10/10 00:26:55;;;;;;;5.30;2.75;;;;;;;8.61;100.00;96004.91;1019129;29;20031;-69
2022/10/10 00:27:25;;;;;;;9.25;3.08;;;;;;;8.59;100.00;96012.22;1021641;28;20024;-69
2022/10/10 00:27:59;;;;;;;6.85;2.97;;;;;;;8.59;100.00;96009.59;1022850;28;20482;-69
2022/10/10 00:28:30;;;;;;;4.10;2.78;;;;;;;8.60;100.00;96008.56;1031659;28;20513;-68
2022/10/10 00:29:00;;;;;;;5.75;2.53;;;;;;;8.60;100.00;96008.56;1035021;28;20314;-69
2022/10/10 00:29:31;;;;;;;4.28;2.58;;;;;;;8.59;100.00;96007.00;1035307;28;20684;-70
2022/10/10 00:30:04;;;;;;;7.45;2.95;;;;;;;8.56;100.00;95999.63;1035070;28;20014;-70
2022/10/10 00:30:35;;;;;;;4.15;2.70;;;;;;;8.58;100.00;96004.59;1030923;28;20041;-68
2022/10/10 00:31:06;;;;;;;4.72;3.03;;;;;;;8.60;100.00;96011.19;1031269;28;20696;-69
2022/10/10 00:31:36;;;;;;;4.43;2.78;;;;;;;8.60;100.00;96011.19;1031147;28;20014;-69
2022/10/10 00:32:07;;;;;;;10.32;3.10;;;;;;;8.60;100.00;96008.56;1031444;28;20280;-69
2022/10/10 00:32:38;;;;;;;8.88;3.08;;;;;;;8.59;100.00;96004.38;1038556;28;20544;-69
2022/10/10 00:33:08;;;;;;;6.70;3.38;;;;;;;8.58;100.00;96005.38;1039103;28;20030;-69
2022/10/10 00:33:39;;;;;;;6.00;3.47;;;;;;;8.57;100.00;96005.66;1035212;28;20057;-69
2022/10/10 00:34:09;;;;;;;6.40;2.75;;;;;;;8.57;100.00;96006.44;1034925;28;20029;-69
2022/10/10 00:34:39;;;;;;;11.80;2.83;;;;;;;8.58;100.00;96005.38;1031011;28;20034;-69
2022/10/10 00:35:10;;;;;;;4.78;2.90;;;;;;;8.59;100.00;96011.44;1031103;28;20022;-67
2022/10/10 00:35:40;;;;;;;8.48;2.40;;;;;;;8.58;100.00;96005.38;1030349;28;20033;-69
2022/10/10 00:36:11;;;;;;;4.25;2.92;;;;;;;8.61;100.00;95998.88;1031201;28;20510;-69
2022/10/10 00:36:41;;;;;;;4.95;2.63;;;;;;;8.62;100.00;96003.88;1031144;28;20029;-69
2022/10/10 00:37:12;;;;;;;5.60;3.08;;;;;;;8.64;100.00;96007.03;1031083;28;20027;-69
2022/10/10 00:37:42;;;;;;;3.92;2.72;;;;;;;8.64;100.00;96006.25;1031163;28;20077;-69
2022/10/10 00:38:12;;;;;;;6.13;2.33;;;;;;;8.65;100.00;96002.59;1031074;28;20605;-69
2022/10/10 00:38:43;;;;;;;5.03;3.38;;;;;;;8.65;100.00;96006.03;1031162;28;20022;-69
2022/10/10 00:39:13;;;;;;;6.78;2.70;;;;;;;8.57;100.00;95993.34;1030806;28;20018;-70
2022/10/10 00:39:44;;;;;;;7.95;3.25;;;;;;;8.64;100.00;96009.66;1027189;28;20023;-69
2022/10/10 00:40:14;;;;;;;7.38;3.17;;;;;;;8.64;100.00;96006.25;1027063;28;20046;-68
2022/10/10 00:40:49;;;;;;;4.60;2.78;;;;;;;8.60;100.00;95994.69;1030944;28;20022;-69
2022/10/10 00:41:21;;;;;;;4.25;2.78;;;;;;;8.62;100.00;96003.88;1035239;28;20076;-70
2022/10/10 00:41:51;;;;;;;5.63;2.85;;;;;;;8.63;100.00;96008.06;1035236;28;20253;-68
2022/10/10 00:42:22;;;;;;;6.32;2.97;;;;;;;8.63;100.00;96004.69;1038508;28;20256;-69
2022/10/10 00:42:52;;;;;;;8.60;2.55;;;;;;;8.64;100.00;96007.03;1034779;28;20477;-69
2022/10/10 00:43:23;;;;;;;5.18;2.45;;;;;;;8.58;100.00;95991.53;1035310;28;20026;-69
2022/10/10 00:44:19;;;;;;;5.13;2.88;;;;;;;8.66;100.00;96004.19;1034903;28;20013;-69
2022/10/10 00:45:20;;;;;;;7.82;2.60;;;;;;;8.64;100.00;96001.81;1035692;28;20280;-68
2022/10/10 00:45:51;;;;;;;4.63;2.70;;;;;;;8.62;100.00;96001.28;1026362;28;20258;-69
2022/10/10 00:46:22;;;;;;;8.30;2.95;;;;;;;8.66;100.00;96004.97;1031083;28;20109;-69
2022/10/10 00:46:52;;;;;;;3.75;2.80;;;;;;;8.64;100.00;95999.19;1022873;28;20035;-68
2022/10/10 00:47:23;;;;;;;5.22;2.90;;;;;;;8.64;100.00;96003.63;1023124;29;20035;-69
2022/10/10 00:48:21;;;;;;;8.50;3.30;;;;;;;8.64;100.00;96001.81;1023003;28;20027;-70
2022/10/10 00:48:51;;;;;;;5.47;2.53;;;;;;;8.59;100.00;96001.75;1022024;28;20019;-71
2022/10/10 00:49:23;;;;;;;4.57;2.75;;;;;;;8.62;100.00;96009.13;1022641;28;20311;-69
2022/10/10 00:49:54;;;;;;;6.80;3.13;;;;;;;8.62;100.00;96000.50;1023224;29;20019;-69
2022/10/10 00:50:24;;;;;;;6.05;3.35;;;;;;;8.59;100.00;96004.38;1027369;28;20262;-70
2022/10/10 00:51:09;;;;;;;5.95;2.95;;;;;;;8.59;100.00;95999.13;1027049;28;20108;-69
2022/10/10 00:51:39;;;;;;;5.38;3.25;;;;;;;8.61;100.00;96004.91;1025321;28;20730;-70
2022/10/10 00:52:09;;;;;;;5.15;3.13;;;;;;;8.63;100.00;95999.44;1018967;29;20307;-70
2022/10/10 00:52:40;;;;;;;7.22;3.15;;;;;;;8.64;100.00;96006.25;1023207;28;20011;-69
2022/10/10 00:53:11;;;;;;;5.13;3.25;;;;;;;8.62;100.00;96001.28;1022895;28;20019;-66
2022/10/10 00:53:45;;;;;;;4.03;2.88;;;;;;;8.62;100.00;95998.66;1031253;28;20463;-69
2022/10/10 00:54:16;;;;;;;5.05;2.88;;;;;;;8.64;100.00;96001.81;1031113;28;20653;-70
2022/10/10 00:54:47;;;;;;;4.25;2.45;;;;;;;8.55;100.00;95992.81;1027739;28;20273;-69
2022/10/10 00:55:17;;;;;;;5.85;2.65;;;;;;;8.62;100.00;96006.50;1026284;28;20285;-69
2022/10/10 00:55:47;;;;;;;4.55;2.80;;;;;;;8.62;100.00;96006.50;1018504;29;20015;-69
2022/10/10 00:56:20;;;;;;;6.32;3.40;;;;;;;8.64;100.00;95996.56;1022948;28;20019;-70
2022/10/10 00:56:50;;;;;;;3.88;2.70;;;;;;;8.63;100.00;96007.28;1031554;28;20501;-67
2022/10/10 00:57:20;;;;;;;5.28;2.95;;;;;;;8.64;100.00;96001.00;1035298;28;20273;-69
2022/10/10 00:57:51;;;;;;;6.72;3.40;;;;;;;8.64;100.00;96001.81;1034814;28;20010;-68
2022/10/10 00:58:21;;;;;;;8.15;3.17;;;;;;;8.61;100.00;95997.06;1031132;28;20018;-70
2022/10/10 00:58:53;;;;;;;8.95;3.25;;;;;;;8.65;100.00;96003.41;1026787;28;20478;-69
2022/10/10 00:59:23;;;;;;;4.50;2.90;;;;;;;8.66;100.00;96006.81;1018821;29;20483;-70
2022/10/10 00:59:54;;;;;;;5.20;3.05;;;;;;;8.65;100.00;96003.41;1018620;29;20267;-69
2022/10/10 01:00:24;;;;;;;4.40;2.85;;;;;;;8.66;100.00;96004.19;1022789;29;20024;-70
2022/10/10 01:00:54;;;;;;;15.65;4.07;;;;;;;8.65;100.00;96003.41;1023243;28;20024;-69
2022/10/10 01:01:25;;;;;;;12.95;3.50;;;;;;;8.63;100.00;96000.22;1026384;28;20019;-69
2022/10/10 01:01:55;;;;;;;8.00;2.95;;;;;;;8.68;100.00;96005.50;1026544;28;20019;-69
2022/10/10 01:02:26;;;;;;;4.00;2.42;;;;;;;8.68;100.00;95997.66;1026928;28;20023;-69
2022/10/10 01:02:56;;;;;;;6.80;2.80;;;;;;;8.71;100.00;96002.41;1026866;28;20023;-69
2022/10/10 01:03:27;;;;;;;5.80;3.17;;;;;;;8.70;100.00;96005.28;1030619;28;20821;-68
2022/10/10 01:03:58;;;;;;;4.70;3.05;;;;;;;8.64;100.00;95996.56;1030742;28;20077;-70
2022/10/10 01:04:33;;;;;;;4.40;2.45;;;;;;;8.68;100.00;95999.50;1022681;29;20039;-69
2022/10/10 01:05:03;;;;;;;6.70;3.00;;;;;;;8.69;100.00;95999.25;1022848;28;20286;-69
2022/10/10 01:05:34;;;;;;;6.35;2.70;;;;;;;8.70;100.00;95997.44;1017906;29;20272;-69
2022/10/10 01:06:05;;;;;;;7.55;2.97;;;;;;;8.70;100.00;96000.84;1027421;28;20026;-69
2022/10/10 01:06:35;;;;;;;6.63;2.85;;;;;;;8.69;100.00;95994.03;1030934;28;20049;-69
2022/10/10 01:07:14;;;;;;;5.50;3.13;;;;;;;8.76;100.00;95998.28;1026534;28;20091;-68
2022/10/10 01:07:44;;;;;;;8.25;3.00;;;;;;;8.68;100.00;95992.44;1018558;29;20038;-69
2022/10/10 01:08:15;;;;;;;4.65;2.88;;;;;;;8.70;100.00;96000.84;1018666;29;20778;-68
2022/10/10 01:08:46;;;;;;;6.68;3.15;;;;;;;8.70;100.00;96000.03;1028399;28;20014;-69
2022/10/10 01:09:16;;;;;;;6.93;2.80;;;;;;;8.73;100.00;95996.94;1022687;29;20038;-69
2022/10/10 01:09:47;;;;;;;7.00;3.28;;;;;;;8.76;100.00;95998.28;1022710;28;20015;-69
2022/10/10 01:10:18;;;;;;;8.73;3.00;;;;;;;8.75;100.00;95997.47;1030636;28;20033;-70
2022/10/10 01:11:04;;;;;;;4.32;2.85;;;;;;;8.72;100.00;95993.53;1026935;28;20015;-70
2022/10/10 01:11:37;;;;;;;5.72;2.70;;;;;;;8.77;100.00;95999.88;1028916;28;20029;-69
2022/10/10 01:12:23;;;;;;;6.35;2.97;;;;;;;8.78;100.00;95996.19;1028028;28;20250;-68
2022/10/10 01:12:59;;;;;;;5.20;3.15;;;;;;;8.76;100.00;95999.06;1030739;28;20262;-69
2022/10/10 01:14:07;;;;;;;5.13;2.67;;;;;;;8.78;100.00;95990.97;1034437;28;20260;-71
2022/10/10 01:14:42;;;;;;;10.10;3.20;;;;;;;8.81;100.00;95998.34;1034789;28;20251;-69
2022/10/10 01:15:34;;;;;;;5.13;3.10;;;;;;;8.78;100.00;95997.00;1026515;28;20630;-66
2022/10/10 01:16:26;;;;;;;7.93;2.53;;;;;;;8.80;100.00;95989.69;1026740;28;20282;-68
2022/10/10 01:17:26;;;;;;;7.65;2.90;;;;;;;8.83;100.00;95991.03;1026600;28;20314;-69
2022/10/10 01:18:08;;;;;;;4.15;2.55;;;;;;;8.84;100.00;95990.78;1029461;28;20371;-69
2022/10/10 01:18:58;;;;;;;6.35;4.03;;;;;;;8.77;100.00;95984.94;1031060;28;20250;-68
2022/10/10 01:20:12;;;;;;;9.90;2.95;;;;;;;8.80;100.00;95988.91;1032385;28;20256;-70
2022/10/10 01:21:02;;;;;;;5.07;2.80;;;;;;;8.83;100.00;95994.44;1026369;28;20266;-69
2022/10/10 01:21:54;;;;;;;5.85;2.78;;;;;;;8.82;100.00;95989.44;1026554;28;20265;-69
2022/10/10 01:22:51;;;;;;;7.30;3.13;;;;;;;8.81;100.00;95986.03;1032148;28;20474;-68
2022/10/10 01:23:24;;;;;;;4.00;2.78;;;;;;;8.82;100.00;95986.81;1014130;29;20796;-69
2022/10/10 01:24:21;;;;;;;4.88;2.55;;;;;;;8.84;100.00;95987.38;1010940;29;20348;-69
2022/10/10 01:25:03;;;;;;;7.38;3.08;;;;;;;8.84;100.00;95990.00;1031091;28;20269;-69
2022/10/10 01:25:55;;;;;;;6.43;3.10;;;;;;;8.88;100.00;95988.47;1035665;28;20276;-67
2022/10/10 01:26:38;;;;;;;5.80;2.85;;;;;;;8.86;100.00;95985.31;1034719;28;20253;-69
2022/10/10 01:27:21;;;;;;;7.70;3.08;;;;;;;8.87;100.00;95990.28;1031067;28;20257;-69
2022/10/10 01:28:20;;;;;;;6.20;3.60;;;;;;;8.88;100.00;95993.69;1036363;28;20272;-69
2022/10/10 01:29:09;;;;;;;6.00;3.17;;;;;;;8.86;100.00;95991.34;1030865;28;20836;-69
2022/10/10 01:30:06;;;;;;;4.97;2.80;;;;;;;8.91;100.00;95985.38;1029046;28;20384;-68
2022/10/10 01:30:36;;;;;;;6.72;3.67;;;;;;;8.89;100.00;95987.44;1030138;28;20664;-70
2022/10/10 01:31:07;;;;;;;5.65;3.20;;;;;;;8.90;100.00;95983.78;1027258;28;20257;-69
2022/10/10 01:31:38;;;;;;;8.73;3.30;;;;;;;8.92;100.00;95989.56;1019043;29;20076;-70
2022/10/10 01:32:13;;;;;;;6.22;3.13;;;;;;;8.94;100.00;95984.88;1027199;28;20488;-70
2022/10/10 01:33:09;;;;;;;20.02;4.30;;;;;;;8.92;100.00;95987.75;1030957;28;20030;-69
2022/10/10 01:34:07;;;;;;;6.20;3.33;;;;;;;8.93;100.00;95983.31;1031275;28;20280;-69
2022/10/10 01:35:02;;;;;;;5.68;3.60;;;;;;;8.97;100.00;95993.03;1019869;29;20275;-69
2022/10/10 01:35:56;;;;;;;8.10;3.40;;;;;;;8.97;100.00;95987.78;1025202;28;20275;-70
2022/10/10 01:36:42;;;;;;;6.30;3.15;;;;;;;8.98;100.00;95989.38;1025479;28;20270;-70
2022/10/10 01:37:15;;;;;;;8.95;3.60;;;;;;;8.98;100.00;95991.97;1025775;28;20362;-70
2022/10/10 01:38:04;;;;;;;6.20;3.13;;;;;;;9.00;100.00;95985.72;1030763;28;20347;-69
2022/10/10 01:38:40;;;;;;;6.40;3.50;;;;;;;8.99;100.00;95990.19;1035022;28;20339;-68
2022/10/10 01:39:17;;;;;;;6.90;3.30;;;;;;;9.01;100.00;95995.94;1030836;28;20265;-68
2022/10/10 01:40:11;;;;;;;9.35;3.88;;;;;;;9.03;100.00;95990.47;1023044;29;20279;-69
2022/10/10 01:40:44;;;;;;;6.95;3.33;;;;;;;9.02;100.00;95992.31;1027752;28;21070;-69
2022/10/10 01:41:25;;;;;;;6.70;3.67;;;;;;;9.02;100.00;95981.03;1026873;28;20792;-69
2022/10/10 01:42:08;;;;;;;6.20;3.17;;;;;;;9.09;100.00;95987.66;1022828;29;21127;-69
2022/10/10 01:42:50;;;;;;;12.23;4.13;;;;;;;9.13;100.00;95990.56;1018845;29;20267;-69
2022/10/10 01:43:20;;;;;;;9.38;3.60;;;;;;;9.10;100.00;95988.44;1027190;28;20286;-69
2022/10/10 01:43:54;;;;;;;5.88;3.53;;;;;;;9.09;100.00;95992.91;1029936;28;20768;-70
2022/10/10 01:44:24;;;;;;;7.53;3.33;;;;;;;9.09;100.00;95989.50;1026757;28;20069;-70
2022/10/10 01:44:55;;;;;;;6.70;3.92;;;;;;;9.09;100.00;95990.28;1027126;28;20270;-70
2022/10/10 01:45:26;;;;;;;5.65;3.60;;;;;;;9.10;100.00;95989.25;1025832;28;20019;-68
2022/10/10 01:45:56;;;;;;;8.75;3.65;;;;;;;9.08;100.00;95990.50;1034580;28;20029;-69
2022/10/10 01:46:27;;;;;;;11.85;3.45;;;;;;;9.12;100.00;95991.59;1031055;28;20099;-69
2022/10/10 01:46:57;;;;;;;5.75;3.53;;;;;;;9.12;100.00;95992.41;1030795;28;20037;-70
2022/10/10 01:47:28;;;;;;;7.32;3.63;;;;;;;9.15;100.00;95988.47;1030988;28;20026;-70
2022/10/10 01:48:03;;;;;;;5.30;3.53;;;;;;;9.16;100.00;95993.50;1034335;28;20025;-69
2022/10/10 01:48:34;;;;;;;8.18;4.15;;;;;;;9.16;100.00;95990.09;1026978;28;20034;-69
2022/10/10 01:49:04;;;;;;;7.20;3.80;;;;;;;9.16;100.00;95993.50;1027629;28;20265;-68
2022/10/10 01:49:35;;;;;;;11.27;3.78;;;;;;;9.21;100.00;95996.16;1022650;29;20028;-69
2022/10/10 01:50:08;;;;;;;7.03;4.15;;;;;;;9.21;100.00;95990.91;1023167;29;20026;-69
2022/10/10 01:50:51;;;;;;;6.95;4.18;;;;;;;9.20;100.00;95988.56;1023364;28;20026;-69
2022/10/10 01:51:40;;;;;;;9.57;4.60;;;;;;;9.27;100.00;95993.59;1027602;28;20267;-69
2022/10/10 01:52:40;;;;;;;8.57;4.60;;;;;;;9.29;100.00;95999.34;1027192;28;20285;-68
2022/10/10 01:53:22;;;;;;;8.55;4.63;;;;;;;9.26;100.00;95997.25;1021768;29;20997;-69
2022/10/10 01:54:02;;;;;;;5.80;3.65;;;;;;;9.27;100.00;95990.97;1016599;28;20039;-69
2022/10/10 01:54:44;;;;;;;9.07;4.68;;;;;;;9.32;100.00;95991.81;1028489;28;20254;-70
2022/10/10 01:55:15;;;;;;;10.70;4.70;;;;;;;9.34;100.00;95988.94;1030843;28;20058;-69
2022/10/10 01:55:50;;;;;;;11.38;5.47;;;;;;;9.31;100.00;95995.44;1033471;28;20619;-69
2022/10/10 01:56:40;;;;;;;12.32;5.63;;;;;;;9.34;100.00;95994.19;1030863;28;20033;-69
2022/10/10 01:57:23;;;;;;;10.48;4.90;;;;;;;9.34;100.00;95994.19;1023677;28;20277;-69
2022/10/10 01:58:03;;;;;;;9.77;4.40;;;;;;;9.36;100.00;95997.34;988240;28;1089919;-70
2022/10/10 01:58:56;;;;;;;14.23;4.60;;;;;;;9.40;100.00;95999.22;1031320;28;20343;-69
2022/10/10 02:00:00;;;;;;;10.77;5.18;;;;;;;9.41;100.00;95997.38;1034767;28;20509;-67
2022/10/10 02:00:34;;;;;;;11.32;5.20;;;;;;;9.42;100.00;96001.56;1034981;28;20597;-69
2022/10/10 02:01:33;;;;;;;10.45;5.28;;;;;;;9.40;100.00;95995.81;1035338;28;20256;-70
2022/10/10 02:02:06;;;;;;;9.23;4.68;;;;;;;9.45;100.00;95998.47;1027023;28;20277;-69
2022/10/10 02:02:39;;;;;;;10.82;5.20;;;;;;;9.47;100.00;95993.00;1031537;28;20258;-69
2022/10/10 02:03:18;;;;;;;9.05;5.70;;;;;;;9.47;100.00;95998.22;1031465;28;20753;-69
2022/10/10 02:04:28;;;;;;;11.70;5.38;;;;;;;9.48;100.00;96005.03;1027527;28;20265;-69
2022/10/10 02:05:17;;;;;;;12.68;6.32;;;;;;;9.47;100.00;96001.63;1021640;28;20307;-69
2022/10/10 02:05:52;;;;;;;9.65;5.45;;;;;;;9.42;100.00;96004.19;1029868;28;20270;-69
2022/10/10 02:06:39;;;;;;;13.30;5.97;;;;;;;9.41;100.00;96000.78;1027608;28;20693;-69
2022/10/10 02:07:14;;;;;;;11.43;5.95;;;;;;;9.40;100.00;96001.84;1027048;28;20302;-69
2022/10/10 02:07:57;;;;;;;9.77;5.05;;;;;;;9.42;100.00;96001.56;1027531;28;20670;-70
2022/10/10 02:08:34;;;;;;;8.55;5.25;;;;;;;9.41;100.00;96003.41;1031060;28;20874;-70
2022/10/10 02:09:06;;;;;;;12.45;6.00;;;;;;;9.38;100.00;96005.72;1027435;28;20266;-68
2022/10/10 02:09:38;;;;;;;8.73;5.10;;;;;;;9.38;100.00;96001.28;1026945;28;20297;-68
2022/10/10 02:10:09;;;;;;;12.82;5.70;;;;;;;9.36;100.00;96002.59;1026812;28;20294;-69
2022/10/10 02:10:43;;;;;;;10.68;5.10;;;;;;;9.35;100.00;96000.97;1027558;28;20266;-69
2022/10/10 02:11:13;;;;;;;10.18;5.47;;;;;;;9.34;100.00;96002.03;1027068;28;20027;-69
2022/10/10 02:11:44;;;;;;;9.65;5.30;;;;;;;9.38;100.00;96003.91;1022675;29;20302;-70
2022/10/10 02:12:14;;;;;;;10.48;5.72;;;;;;;9.36;100.00;95999.97;1030540;28;20041;-70
2022/10/10 02:12:45;;;;;;;10.60;6.07;;;;;;;9.36;100.00;95997.34;1031076;28;20033;-70
2022/10/10 02:13:15;;;;;;;13.27;5.43;;;;;;;9.35;100.00;96000.97;1023331;29;20368;-69
2022/10/10 02:13:47;;;;;;;10.55;5.25;;;;;;;9.39;100.00;96002.88;1026947;28;20018;-70
2022/10/10 02:14:22;;;;;;;11.05;5.40;;;;;;;9.40;100.00;95995.81;1026896;28;20058;-69
2022/10/10 02:14:53;;;;;;;10.82;5.10;;;;;;;9.43;100.00;95995.31;1035289;28;20861;-70
2022/10/10 02:15:24;;;;;;;9.02;5.25;;;;;;;9.44;100.00;96004.75;1014458;29;20764;-69
2022/10/10 02:15:55;;;;;;;14.13;6.47;;;;;;;9.40;100.00;96001.84;1023312;29;20353;-69
2022/10/10 02:16:30;;;;;;;11.82;5.18;;;;;;;9.42;100.00;95993.72;1019045;29;20294;-69
2022/10/10 02:17:01;;;;;;;8.43;5.43;;;;;;;9.38;100.00;95996.03;1027795;28;20049;-69
2022/10/10 02:17:32;;;;;;;13.63;6.30;;;;;;;9.42;100.00;96001.56;1023182;29;20302;-68
2022/10/10 02:18:04;;;;;;;11.38;6.75;;;;;;;9.43;100.00;95997.94;1023145;29;20092;-70
2022/10/10 02:18:34;;;;;;;11.10;6.25;;;;;;;9.36;100.00;95986.88;1031032;28;20932;-70
2022/10/10 02:19:06;;;;;;;11.65;6.68;;;;;;;9.47;100.00;96001.63;1035095;28;20355;-70
2022/10/10 02:19:37;;;;;;;17.55;6.22;;;;;;;9.43;100.00;95990.06;1031053;28;20034;-69
2022/10/10 02:20:09;;;;;;;14.88;6.28;;;;;;;9.48;100.00;95997.97;1035398;28;20292;-69
2022/10/10 02:20:39;;;;;;;17.48;6.32;;;;;;;9.48;100.00;95994.56;1026827;28;20282;-69
2022/10/10 02:21:10;;;;;;;12.57;6.68;;;;;;;9.42;100.00;95985.84;1022960;28;20789;-68
2022/10/10 02:21:40;;;;;;;14.27;7.07;;;;;;;9.48;100.00;96000.59;1035265;28;20021;-69
2022/10/10 02:22:11;;;;;;;14.35;6.93;;;;;;;9.50;100.00;95997.72;1026971;28;20035;-69
2022/10/10 02:22:41;;;;;;;13.55;6.60;;;;;;;9.50;100.00;95998.53;1019252;29;20031;-69
2022/10/10 02:23:13;;;;;;;11.07;6.53;;;;;;;9.50;100.00;95993.28;1031035;28;20576;-70
2022/10/10 02:23:45;;;;;;;12.25;6.80;;;;;;;9.49;100.00;95991.72;1030841;28;20030;-68
2022/10/10 02:24:16;;;;;;;13.70;6.95;;;;;;;9.50;100.00;95995.13;1027101;28;20273;-68
2022/10/10 02:24:46;;;;;;;14.65;5.93;;;;;;;9.52;100.00;95998.25;1019110;29;20267;-69
2022/10/10 02:25:21;;;;;;;12.90;5.93;;;;;;;9.50;100.00;95992.50;1023096;29;20031;-69
2022/10/10 02:25:53;;;;;;;13.45;6.95;;;;;;;9.48;100.00;95984.09;1021543;28;20051;-69
2022/10/10 02:26:23;;;;;;;11.63;6.18;;;;;;;9.48;100.00;95997.97;1024689;28;20871;-67
2022/10/10 02:27:15;;;;;;;11.68;6.10;;;;;;;9.51;100.00;95999.31;1025013;28;20269;-68
2022/10/10 02:28:03;;;;;;;12.02;6.45;;;;;;;9.48;100.00;95995.34;1023662;28;20106;-68
2022/10/10 02:28:52;;;;;;;13.13;6.03;;;;;;;9.50;100.00;95993.28;1029209;28;20266;-70
2022/10/10 02:29:26;;;;;;;10.70;5.53;;;;;;;9.49;100.00;95989.09;1022800;29;20275;-69
2022/10/10 02:29:56;;;;;;;11.30;6.15;;;;;;;9.47;100.00;95985.91;1022915;29;20764;-68
2022/10/10 02:30:27;;;;;;;12.38;6.13;;;;;;;9.48;100.00;95989.31;1026761;28;20281;-69
2022/10/10 02:30:59;;;;;;;14.02;6.85;;;;;;;9.45;100.00;95986.16;1034103;28;20033;-70
2022/10/10 02:31:31;;;;;;;12.30;6.47;;;;;;;9.48;100.00;95994.56;1026710;28;20064;-68
2022/10/10 02:32:10;;;;;;;10.75;5.68;;;;;;;9.45;100.00;95985.38;1035317;28;20268;-69
2022/10/10 02:32:45;;;;;;;12.98;5.85;;;;;;;9.48;100.00;95989.31;1037380;28;20286;-69
2022/10/10 02:33:19;;;;;;;11.05;5.85;;;;;;;9.42;100.00;95991.09;1030387;28;20827;-69
2022/10/10 02:33:55;;;;;;;9.25;5.18;;;;;;;9.42;100.00;95998.94;1018808;29;20278;-69
2022/10/10 02:34:32;;;;;;;10.50;6.13;;;;;;;9.42;100.00;95991.09;1014719;29;20667;-69
2022/10/10 02:35:06;;;;;;;11.75;5.18;;;;;;;9.40;100.00;95991.34;1014337;29;20326;-71
2022/10/10 02:35:39;;;;;;;11.02;5.50;;;;;;;9.45;100.00;96001.06;1025906;28;20845;-69
2022/10/10 02:36:09;;;;;;;8.95;5.50;;;;;;;9.43;100.00;95997.94;1010852;29;20295;-70
2022/10/10 02:36:40;;;;;;;9.30;5.30;;;;;;;9.45;100.00;95986.16;1014948;29;20845;-69
2022/10/10 02:37:11;;;;;;;11.38;5.60;;;;;;;9.44;100.00;95989.03;1022586;28;20024;-69
2022/10/10 02:37:42;;;;;;;10.93;6.00;;;;;;;9.48;100.00;95989.31;1036799;28;20072;-69
2022/10/10 02:38:13;;;;;;;11.55;5.97;;;;;;;9.47;100.00;95991.16;1030675;28;20333;-70
2022/10/10 02:38:43;;;;;;;10.43;5.93;;;;;;;9.48;100.00;95990.09;1034875;28;20555;-69
2022/10/10 02:39:14;;;;;;;10.13;6.00;;;;;;;9.50;100.00;95987.25;1030430;28;20270;-69
2022/10/10 02:39:47;;;;;;;12.20;6.30;;;;;;;9.48;100.00;95995.34;1026789;28;20089;-69
2022/10/10 02:40:22;;;;;;;9.98;5.38;;;;;;;9.49;100.00;95991.72;1018891;29;20119;-69
2022/10/10 02:40:52;;;;;;;9.93;5.28;;;;;;;9.48;100.00;95990.09;1022679;28;21182;-69
2022/10/10 02:41:23;;;;;;;10.90;6.03;;;;;;;9.51;100.00;95988.81;1022564;29;20259;-70
2022/10/10 02:41:54;;;;;;;9.70;5.60;;;;;;;9.43;100.00;95982.22;1027468;28;20474;-68
2022/10/10 02:42:24;;;;;;;13.75;5.63;;;;;;;9.51;100.00;95987.00;1026730;28;20266;-69
2022/10/10 02:42:55;;;;;;;10.20;5.65;;;;;;;9.55;100.00;95989.91;1022457;28;20027;-70
2022/10/10 02:43:25;;;;;;;10.50;6.22;;;;;;;9.53;100.00;95992.78;1018619;29;20020;-70
2022/10/10 02:43:56;;;;;;;9.82;6.03;;;;;;;9.54;100.00;95989.13;1022644;29;20395;-68
2022/10/10 02:44:26;;;;;;;8.30;5.22;;;;;;;9.52;100.00;95985.94;1030389;28;20026;-69
2022/10/10 02:44:56;;;;;;;10.52;6.55;;;;;;;9.52;100.00;95990.41;1026655;28;20033;-69